Pagrindinis puslapis
METAR-TAF:

METAR-TAF

Oro uostai :

Utopia Creek, Aliaska, Jungtinės Amerikos Valstijos

platuma: 66-59N, ilguma: 153-42W, Aukštis: 372 m

Dabartinis oras

Ataskaita buvo paskelbta 21 minutes, ne 20:55 UTC
Vėjas 7 kt iš Vakarų/Šiaurės Vakarų su gūsio iki 15 kt, svyruoja nuo Vakarų ir Šiaurės/Šiaurės Vakarų
Temperatūra 4°C
Drėgmė 65%
Slėgis 997 hPa
Matomumas: 16.1 km
Giedras dangus

METAR: PAIM 212055Z AUTO 30007G15KT 260V340 10SM CLR 04/M02 A2944 RMK AO2 SLP981 T00431021 52014

Laikas: 13:16 (21:16 UTC)


TAF: trūkstamas

Orai ataskaitas ir orų prognozės (METAR, TAF).

turimą stotys yra geltonos ir raudonos taškus žemėlapyje.

Perkelti pele per norėdami pamatyti stoties vardą.

Tada spustelėkite, norėdami matyti oro stebėjimo ir prognozės.

Norėdami pakeisti žemėlapį: spustelėkite ant žalios mygtukų su juodo kryžiaus žemyn,; žalią mygtuką su brūkšneliu, jei norite nutolinti; arba žalių rodyklių gretimoms žemėlapius.


METAR-TAF: